sensor_id;sensor_type;location;lat;lon;timestamp;pressure;altitude;pressure_sealevel;temperature;humidity
14383;BME280;7275;50.328;8.720;2023-12-20T00:01:30;99647.25;;;10.60;61.00
14383;BME280;7275;50.328;8.720;2023-12-20T00:03:59;99653.13;;;10.66;61.06
14383;BME280;7275;50.328;8.720;2023-12-20T00:06:27;99649.59;;;10.67;61.48
14383;BME280;7275;50.328;8.720;2023-12-20T00:08:55;99643.56;;;10.64;61.05
14383;BME280;7275;50.328;8.720;2023-12-20T00:11:24;99640.78;;;10.67;61.05
14383;BME280;7275;50.328;8.720;2023-12-20T00:13:51;99642.38;;;10.71;61.22
14383;BME280;7275;50.328;8.720;2023-12-20T00:16:19;99645.22;;;10.66;61.20
14383;BME280;7275;50.328;8.720;2023-12-20T00:18:47;99642.31;;;10.72;61.10
14383;BME280;7275;50.328;8.720;2023-12-20T00:21:16;99634.34;;;10.74;60.83
14383;BME280;7275;50.328;8.720;2023-12-20T00:23:43;99637.81;;;10.76;60.87
14383;BME280;7275;50.328;8.720;2023-12-20T00:26:11;99636.03;;;10.76;60.94
14383;BME280;7275;50.328;8.720;2023-12-20T00:28:38;99627.16;;;10.77;61.08
14383;BME280;7275;50.328;8.720;2023-12-20T00:31:06;99629.97;;;10.73;61.19
14383;BME280;7275;50.328;8.720;2023-12-20T00:33:33;99637.63;;;10.80;60.84
14383;BME280;7275;50.328;8.720;2023-12-20T00:36:01;99637.56;;;10.82;60.72
14383;BME280;7275;50.328;8.720;2023-12-20T00:38:30;99630.41;;;10.84;60.82
14383;BME280;7275;50.328;8.720;2023-12-20T00:40:58;99637.41;;;10.85;60.80
14383;BME280;7275;50.328;8.720;2023-12-20T00:43:25;99636.50;;;10.86;60.28
14383;BME280;7275;50.328;8.720;2023-12-20T00:45:53;99632.38;;;10.79;60.61
14383;BME280;7275;50.328;8.720;2023-12-20T00:48:21;99640.31;;;10.79;60.60
14383;BME280;7275;50.328;8.720;2023-12-20T00:50:49;99635.00;;;10.79;60.23
14383;BME280;7275;50.328;8.720;2023-12-20T00:53:17;99633.38;;;10.76;60.28
14383;BME280;7275;50.328;8.720;2023-12-20T00:55:46;99628.31;;;10.70;60.47
14383;BME280;7275;50.328;8.720;2023-12-20T00:58:13;99632.06;;;10.65;60.31
14383;BME280;7275;50.328;8.720;2023-12-20T01:00:42;99617.06;;;10.65;60.57
14383;BME280;7275;50.328;8.720;2023-12-20T01:03:10;99622.47;;;10.62;60.30
14383;BME280;7275;50.328;8.720;2023-12-20T01:05:38;99620.81;;;10.60;60.72
14383;BME280;7275;50.328;8.720;2023-12-20T01:08:07;99619.88;;;10.61;60.63
14383;BME280;7275;50.328;8.720;2023-12-20T01:10:35;99605.78;;;10.60;60.36
14383;BME280;7275;50.328;8.720;2023-12-20T01:13:04;99614.69;;;10.58;60.80
14383;BME280;7275;50.328;8.720;2023-12-20T01:15:31;99599.72;;;10.58;60.27
14383;BME280;7275;50.328;8.720;2023-12-20T01:17:59;99597.38;;;10.51;60.54
14383;BME280;7275;50.328;8.720;2023-12-20T01:20:27;99604.78;;;10.41;61.04
14383;BME280;7275;50.328;8.720;2023-12-20T01:22:54;99599.47;;;10.42;61.11
14383;BME280;7275;50.328;8.720;2023-12-20T01:25:22;99597.66;;;10.43;60.78
14383;BME280;7275;50.328;8.720;2023-12-20T01:27:50;99592.09;;;10.51;60.57
14383;BME280;7275;50.328;8.720;2023-12-20T01:30:19;99586.63;;;10.55;60.62
14383;BME280;7275;50.328;8.720;2023-12-20T01:32:46;99602.53;;;10.54;60.12
14383;BME280;7275;50.328;8.720;2023-12-20T01:35:14;99596.34;;;10.55;60.44
14383;BME280;7275;50.328;8.720;2023-12-20T01:37:41;99611.38;;;10.53;60.38
14383;BME280;7275;50.328;8.720;2023-12-20T01:40:10;99620.47;;;10.45;60.78
14383;BME280;7275;50.328;8.720;2023-12-20T01:42:38;99613.50;;;10.43;60.76
14383;BME280;7275;50.328;8.720;2023-12-20T01:45:06;99608.63;;;10.56;60.43
14383;BME280;7275;50.328;8.720;2023-12-20T01:47:35;99620.22;;;10.52;60.32
14383;BME280;7275;50.328;8.720;2023-12-20T01:50:04;99612.06;;;10.58;60.53
14383;BME280;7275;50.328;8.720;2023-12-20T01:52:32;99611.84;;;10.64;60.42
14383;BME280;7275;50.328;8.720;2023-12-20T01:55:01;99612.81;;;10.61;60.38
14383;BME280;7275;50.328;8.720;2023-12-20T01:57:31;99611.63;;;10.68;60.25
14383;BME280;7275;50.328;8.720;2023-12-20T01:59:58;99615.94;;;10.71;60.06
14383;BME280;7275;50.328;8.720;2023-12-20T02:02:27;99612.56;;;10.67;60.10
14383;BME280;7275;50.328;8.720;2023-12-20T02:04:57;99609.25;;;10.62;59.89
14383;BME280;7275;50.328;8.720;2023-12-20T02:07:25;99606.59;;;10.62;60.25
14383;BME280;7275;50.328;8.720;2023-12-20T02:09:53;99611.84;;;10.64;60.17
14383;BME280;7275;50.328;8.720;2023-12-20T02:12:21;99621.47;;;10.65;60.01
14383;BME280;7275;50.328;8.720;2023-12-20T02:14:49;99607.13;;;10.72;60.17
14383;BME280;7275;50.328;8.720;2023-12-20T02:17:16;99601.06;;;10.68;60.24
14383;BME280;7275;50.328;8.720;2023-12-20T02:19:44;99607.84;;;10.75;59.92
14383;BME280;7275;50.328;8.720;2023-12-20T02:22:13;99603.34;;;10.77;59.83
14383;BME280;7275;50.328;8.720;2023-12-20T02:24:41;99605.81;;;10.82;59.53
14383;BME280;7275;50.328;8.720;2023-12-20T02:27:09;99612.03;;;10.81;59.68
14383;BME280;7275;50.328;8.720;2023-12-20T02:29:36;99606.63;;;10.84;59.61
14383;BME280;7275;50.328;8.720;2023-12-20T02:32:04;99598.69;;;10.84;59.14
14383;BME280;7275;50.328;8.720;2023-12-20T02:34:32;99601.44;;;10.81;59.41
14383;BME280;7275;50.328;8.720;2023-12-20T02:36:59;99605.94;;;10.79;59.66
14383;BME280;7275;50.328;8.720;2023-12-20T02:39:30;99614.09;;;10.73;59.84
14383;BME280;7275;50.328;8.720;2023-12-20T02:41:57;99604.34;;;10.75;59.68
14383;BME280;7275;50.328;8.720;2023-12-20T02:44:25;99608.81;;;10.73;59.90
14383;BME280;7275;50.328;8.720;2023-12-20T02:46:52;99614.06;;;10.74;59.63
14383;BME280;7275;50.328;8.720;2023-12-20T02:49:20;99608.19;;;10.66;59.66
14383;BME280;7275;50.328;8.720;2023-12-20T02:51:48;99615.84;;;10.74;60.02
14383;BME280;7275;50.328;8.720;2023-12-20T02:54:15;99617.78;;;10.69;59.89
14383;BME280;7275;50.328;8.720;2023-12-20T02:56:44;99619.81;;;10.62;60.06
14383;BME280;7275;50.328;8.720;2023-12-20T02:59:12;99615.31;;;10.64;59.86
14383;BME280;7275;50.328;8.720;2023-12-20T03:01:41;99609.25;;;10.62;59.96
14383;BME280;7275;50.328;8.720;2023-12-20T03:04:10;99607.22;;;10.69;59.65
14383;BME280;7275;50.328;8.720;2023-12-20T03:06:38;99609.69;;;10.73;59.63
14383;BME280;7275;50.328;8.720;2023-12-20T03:09:06;99611.72;;;10.67;60.10
14383;BME280;7275;50.328;8.720;2023-12-20T03:11:33;99609.94;;;10.67;59.92
14383;BME280;7275;50.328;8.720;2023-12-20T03:14:02;99613.44;;;10.68;60.00
14383;BME280;7275;50.328;8.720;2023-12-20T03:16:30;99617.69;;;10.72;59.68
14383;BME280;7275;50.328;8.720;2023-12-20T03:19:02;99634.53;;;10.69;59.91
14383;BME280;7275;50.328;8.720;2023-12-20T03:21:30;99635.81;;;10.81;59.81
14383;BME280;7275;50.328;8.720;2023-12-20T03:23:57;99631.47;;;10.80;59.41
14383;BME280;7275;50.328;8.720;2023-12-20T03:26:25;99636.06;;;10.75;59.83
14383;BME280;7275;50.328;8.720;2023-12-20T03:28:52;99636.94;;;10.75;59.64
14383;BME280;7275;50.328;8.720;2023-12-20T03:31:21;99644.78;;;10.77;59.55
14383;BME280;7275;50.328;8.720;2023-12-20T03:33:49;99654.53;;;10.76;59.76
14383;BME280;7275;50.328;8.720;2023-12-20T03:36:17;99657.56;;;10.89;59.57
14383;BME280;7275;50.328;8.720;2023-12-20T03:38:45;99651.34;;;10.90;59.20
14383;BME280;7275;50.328;8.720;2023-12-20T03:41:13;99666.94;;;10.96;59.44
14383;BME280;7275;50.328;8.720;2023-12-20T03:43:41;99662.47;;;10.98;59.51
14383;BME280;7275;50.328;8.720;2023-12-20T03:46:08;99653.38;;;11.05;59.56
14383;BME280;7275;50.328;8.720;2023-12-20T03:48:37;99650.66;;;11.06;59.08
14383;BME280;7275;50.328;8.720;2023-12-20T03:51:05;99648.88;;;11.07;58.97
14383;BME280;7275;50.328;8.720;2023-12-20T03:53:32;99649.69;;;11.09;59.07
14383;BME280;7275;50.328;8.720;2023-12-20T03:56:00;99646.00;;;11.13;59.26
14383;BME280;7275;50.328;8.720;2023-12-20T03:58:27;99648.50;;;11.16;59.14
14383;BME280;7275;50.328;8.720;2023-12-20T04:00:55;99653.13;;;11.11;59.28
14383;BME280;7275;50.328;8.720;2023-12-20T04:03:23;99646.84;;;11.13;59.08
14383;BME280;7275;50.328;8.720;2023-12-20T04:05:52;99664.50;;;11.13;59.33
14383;BME280;7275;50.328;8.720;2023-12-20T04:08:19;99652.06;;;11.15;59.10
14383;BME280;7275;50.328;8.720;2023-12-20T04:10:47;99658.16;;;11.17;58.85
14383;BME280;7275;50.328;8.720;2023-12-20T04:13:15;99665.19;;;11.18;58.81
14383;BME280;7275;50.328;8.720;2023-12-20T04:15:42;99668.06;;;11.12;58.98
14383;BME280;7275;50.328;8.720;2023-12-20T04:18:10;99667.09;;;11.14;59.05
14383;BME280;7275;50.328;8.720;2023-12-20T04:20:38;99679.22;;;11.20;59.02
14383;BME280;7275;50.328;8.720;2023-12-20T04:23:07;99668.41;;;11.26;58.97
14383;BME280;7275;50.328;8.720;2023-12-20T04:25:34;99661.97;;;11.32;58.72
14383;BME280;7275;50.328;8.720;2023-12-20T04:28:03;99660.84;;;11.37;58.84
14383;BME280;7275;50.328;8.720;2023-12-20T04:30:31;99671.31;;;11.40;58.48
14383;BME280;7275;50.328;8.720;2023-12-20T04:32:58;99662.25;;;11.46;58.76
14383;BME280;7275;50.328;8.720;2023-12-20T04:35:26;99670.16;;;11.47;58.76
14383;BME280;7275;50.328;8.720;2023-12-20T04:37:53;99673.47;;;11.52;58.67
14383;BME280;7275;50.328;8.720;2023-12-20T04:40:22;99678.66;;;11.55;58.48
14383;BME280;7275;50.328;8.720;2023-12-20T04:42:50;99675.84;;;11.58;58.74
14383;BME280;7275;50.328;8.720;2023-12-20T04:45:18;99673.88;;;11.63;58.72
14383;BME280;7275;50.328;8.720;2023-12-20T04:47:46;99677.19;;;11.70;58.54
14383;BME280;7275;50.328;8.720;2023-12-20T04:50:14;99677.91;;;11.73;58.69
14383;BME280;7275;50.328;8.720;2023-12-20T04:52:42;99679.41;;;11.79;58.49
14383;BME280;7275;50.328;8.720;2023-12-20T04:55:10;99680.44;;;11.76;58.40
14383;BME280;7275;50.328;8.720;2023-12-20T04:57:39;99692.81;;;11.76;58.32
14383;BME280;7275;50.328;8.720;2023-12-20T05:00:07;99692.91;;;11.73;58.21
14383;BME280;7275;50.328;8.720;2023-12-20T05:02:35;99702.72;;;11.71;57.91
14383;BME280;7275;50.328;8.720;2023-12-20T05:05:04;99702.91;;;11.66;57.66
14383;BME280;7275;50.328;8.720;2023-12-20T05:07:31;99704.09;;;11.58;57.18
14383;BME280;7275;50.328;8.720;2023-12-20T05:09:59;99721.00;;;11.55;56.88
14383;BME280;7275;50.328;8.720;2023-12-20T05:12:27;99711.50;;;11.50;56.92
14383;BME280;7275;50.328;8.720;2023-12-20T05:14:55;99703.78;;;11.45;56.92
14383;BME280;7275;50.328;8.720;2023-12-20T05:17:23;99715.34;;;11.43;56.55
14383;BME280;7275;50.328;8.720;2023-12-20T05:19:51;99719.22;;;11.34;56.03
14383;BME280;7275;50.328;8.720;2023-12-20T05:22:19;99721.25;;;11.27;56.39
14383;BME280;7275;50.328;8.720;2023-12-20T05:24:47;99718.69;;;11.24;56.14
14383;BME280;7275;50.328;8.720;2023-12-20T05:27:14;99716.94;;;11.25;56.23
14383;BME280;7275;50.328;8.720;2023-12-20T05:29:42;99717.97;;;11.21;56.21
14383;BME280;7275;50.328;8.720;2023-12-20T05:32:11;99721.56;;;11.20;55.99
14383;BME280;7275;50.328;8.720;2023-12-20T05:34:39;99721.34;;;11.24;55.90
14383;BME280;7275;50.328;8.720;2023-12-20T05:37:06;99721.25;;;11.27;55.73
14383;BME280;7275;50.328;8.720;2023-12-20T05:39:34;99722.28;;;11.23;55.40
14383;BME280;7275;50.328;8.720;2023-12-20T05:42:02;99735.63;;;11.20;55.22
14383;BME280;7275;50.328;8.720;2023-12-20T05:44:29;99738.34;;;11.19;55.25
14383;BME280;7275;50.328;8.720;2023-12-20T05:46:57;99729.50;;;11.20;55.28
14383;BME280;7275;50.328;8.720;2023-12-20T05:49:26;99729.34;;;11.23;55.33
14383;BME280;7275;50.328;8.720;2023-12-20T05:51:53;99732.94;;;11.22;55.12
14383;BME280;7275;50.328;8.720;2023-12-20T05:54:21;99731.19;;;11.21;55.17
14383;BME280;7275;50.328;8.720;2023-12-20T05:56:49;99729.53;;;11.18;55.42
14383;BME280;7275;50.328;8.720;2023-12-20T05:59:17;99729.59;;;11.17;55.40
14383;BME280;7275;50.328;8.720;2023-12-20T06:01:44;99734.00;;;11.18;55.15
14383;BME280;7275;50.328;8.720;2023-12-20T06:04:12;99726.09;;;11.16;55.04
14383;BME280;7275;50.328;8.720;2023-12-20T06:06:42;99736.75;;;11.15;55.00
14383;BME280;7275;50.328;8.720;2023-12-20T06:09:10;99735.19;;;11.09;54.79
14383;BME280;7275;50.328;8.720;2023-12-20T06:11:37;99754.81;;;11.04;54.90
14383;BME280;7275;50.328;8.720;2023-12-20T06:14:05;99756.78;;;10.99;54.64
14383;BME280;7275;50.328;8.720;2023-12-20T06:16:32;99758.63;;;10.97;54.72
14383;BME280;7275;50.328;8.720;2023-12-20T06:19:00;99753.31;;;10.97;55.03
14383;BME280;7275;50.328;8.720;2023-12-20T06:21:28;99749.06;;;10.93;55.09
14383;BME280;7275;50.328;8.720;2023-12-20T06:23:58;99752.84;;;10.86;54.84
14383;BME280;7275;50.328;8.720;2023-12-20T06:26:26;99747.66;;;10.83;54.79
14383;BME280;7275;50.328;8.720;2023-12-20T06:28:53;99741.47;;;10.84;55.14
14383;BME280;7275;50.328;8.720;2023-12-20T06:31:21;99752.97;;;10.83;55.15
14383;BME280;7275;50.328;8.720;2023-12-20T06:33:49;99761.03;;;10.80;54.93
14383;BME280;7275;50.328;8.720;2023-12-20T06:36:23;99757.44;;;10.81;55.07
14383;BME280;7275;50.328;8.720;2023-12-20T06:38:51;99752.16;;;10.81;54.96
14383;BME280;7275;50.328;8.720;2023-12-20T06:41:20;99762.72;;;10.81;54.91
14383;BME280;7275;50.328;8.720;2023-12-20T06:43:50;99768.03;;;10.81;55.23
14383;BME280;7275;50.328;8.720;2023-12-20T06:46:19;99761.91;;;10.80;55.17
14383;BME280;7275;50.328;8.720;2023-12-20T06:48:47;99764.56;;;10.79;54.89
14383;BME280;7275;50.328;8.720;2023-12-20T06:51:16;99763.66;;;10.80;55.24
14383;BME280;7275;50.328;8.720;2023-12-20T06:53:44;99766.25;;;10.81;54.82
14383;BME280;7275;50.328;8.720;2023-12-20T06:56:11;99778.56;;;10.82;54.92
14383;BME280;7275;50.328;8.720;2023-12-20T06:58:44;99772.25;;;10.86;55.06
14383;BME280;7275;50.328;8.720;2023-12-20T07:01:11;99766.97;;;10.86;55.20
14383;BME280;7275;50.328;8.720;2023-12-20T07:03:39;99772.28;;;10.85;55.01
14383;BME280;7275;50.328;8.720;2023-12-20T07:06:07;99770.41;;;10.88;55.14
14383;BME280;7275;50.328;8.720;2023-12-20T07:08:35;99772.25;;;10.86;54.69
14383;BME280;7275;50.328;8.720;2023-12-20T07:11:03;99769.75;;;10.82;54.73
14383;BME280;7275;50.328;8.720;2023-12-20T07:13:30;99777.56;;;10.85;54.83
14383;BME280;7275;50.328;8.720;2023-12-20T07:15:59;99771.47;;;10.83;54.92
14383;BME280;7275;50.328;8.720;2023-12-20T07:18:27;99777.53;;;10.86;54.47
14383;BME280;7275;50.328;8.720;2023-12-20T07:20:54;99780.28;;;10.83;54.80
14383;BME280;7275;50.328;8.720;2023-12-20T07:23:22;99777.00;;;10.77;54.27
14383;BME280;7275;50.328;8.720;2023-12-20T07:25:50;99769.22;;;10.72;54.76
14383;BME280;7275;50.328;8.720;2023-12-20T07:28:17;99785.22;;;10.69;54.63
14383;BME280;7275;50.328;8.720;2023-12-20T07:30:45;99784.34;;;10.69;54.64
14383;BME280;7275;50.328;8.720;2023-12-20T07:33:14;99788.56;;;10.74;54.46
14383;BME280;7275;50.328;8.720;2023-12-20T07:35:42;99776.19;;;10.75;54.43
14383;BME280;7275;50.328;8.720;2023-12-20T07:38:11;99780.44;;;10.79;54.73
14383;BME280;7275;50.328;8.720;2023-12-20T07:40:39;99783.06;;;10.80;54.69
14383;BME280;7275;50.328;8.720;2023-12-20T07:43:07;99782.00;;;10.84;54.76
14383;BME280;7275;50.328;8.720;2023-12-20T07:45:35;99773.06;;;10.87;54.59
14383;BME280;7275;50.328;8.720;2023-12-20T07:48:03;99784.50;;;10.89;54.67
14383;BME280;7275;50.328;8.720;2023-12-20T07:50:32;99779.88;;;10.94;54.57
14383;BME280;7275;50.328;8.720;2023-12-20T07:53:00;99800.69;;;11.03;54.56
14383;BME280;7275;50.328;8.720;2023-12-20T07:55:28;99789.09;;;11.07;54.56
14383;BME280;7275;50.328;8.720;2023-12-20T07:57:57;99791.72;;;11.07;54.77
14383;BME280;7275;50.328;8.720;2023-12-20T08:00:24;99794.53;;;11.02;54.59
14383;BME280;7275;50.328;8.720;2023-12-20T08:02:52;99799.44;;;11.13;54.39
14383;BME280;7275;50.328;8.720;2023-12-20T08:05:20;99803.78;;;11.14;54.12
14383;BME280;7275;50.328;8.720;2023-12-20T08:07:49;99808.28;;;11.12;54.09
14383;BME280;7275;50.328;8.720;2023-12-20T08:10:16;99809.50;;;11.03;54.23
14383;BME280;7275;50.328;8.720;2023-12-20T08:12:46;99816.44;;;11.06;54.01
14383;BME280;7275;50.328;8.720;2023-12-20T08:15:13;99812.03;;;11.06;54.44
14383;BME280;7275;50.328;8.720;2023-12-20T08:17:41;99810.25;;;11.07;54.08
14383;BME280;7275;50.328;8.720;2023-12-20T08:20:10;99812.09;;;11.05;54.19
14383;BME280;7275;50.328;8.720;2023-12-20T08:22:45;99816.44;;;11.06;54.45
14383;BME280;7275;50.328;8.720;2023-12-20T08:25:14;99806.63;;;11.09;54.66
14383;BME280;7275;50.328;8.720;2023-12-20T08:27:41;99821.88;;;11.03;54.46
14383;BME280;7275;50.328;8.720;2023-12-20T08:30:10;99818.06;;;11.10;54.36
14383;BME280;7275;50.328;8.720;2023-12-20T08:32:38;99817.94;;;11.13;54.56
14383;BME280;7275;50.328;8.720;2023-12-20T08:35:06;99811.44;;;11.21;55.09
14383;BME280;7275;50.328;8.720;2023-12-20T08:37:35;99803.31;;;11.49;55.13
14383;BME280;7275;50.328;8.720;2023-12-20T08:40:03;99812.78;;;11.78;55.28
14383;BME280;7275;50.328;8.720;2023-12-20T08:42:33;99817.75;;;12.27;55.47
14383;BME280;7275;50.328;8.720;2023-12-20T08:45:01;99801.72;;;12.50;53.84
14383;BME280;7275;50.328;8.720;2023-12-20T08:47:30;99797.88;;;12.77;53.89
14383;BME280;7275;50.328;8.720;2023-12-20T08:49:58;99799.13;;;12.89;53.02
14383;BME280;7275;50.328;8.720;2023-12-20T08:52:27;99798.09;;;12.92;52.52
14383;BME280;7275;50.328;8.720;2023-12-20T08:54:55;99802.34;;;12.96;52.51
14383;BME280;7275;50.328;8.720;2023-12-20T08:57:23;99794.34;;;12.97;51.57
14383;BME280;7275;50.328;8.720;2023-12-20T08:59:52;99787.81;;;13.04;51.34
14383;BME280;7275;50.328;8.720;2023-12-20T09:02:20;99794.78;;;13.07;51.33
14383;BME280;7275;50.328;8.720;2023-12-20T09:04:48;99798.44;;;13.04;50.87
14383;BME280;7275;50.328;8.720;2023-12-20T09:07:22;99801.34;;;12.98;50.30
14383;BME280;7275;50.328;8.720;2023-12-20T09:09:50;99797.97;;;12.95;50.02
14383;BME280;7275;50.328;8.720;2023-12-20T09:12:19;99799.75;;;12.94;50.30
14383;BME280;7275;50.328;8.720;2023-12-20T09:14:47;99799.81;;;13.13;50.53
14383;BME280;7275;50.328;8.720;2023-12-20T09:17:16;99799.53;;;13.19;50.39
14383;BME280;7275;50.328;8.720;2023-12-20T09:19:44;99798.25;;;13.27;50.09
14383;BME280;7275;50.328;8.720;2023-12-20T09:22:12;99804.50;;;13.26;50.12
14383;BME280;7275;50.328;8.720;2023-12-20T09:24:40;99810.81;;;13.24;50.20
14383;BME280;7275;50.328;8.720;2023-12-20T09:27:07;99823.13;;;13.25;49.80
14383;BME280;7275;50.328;8.720;2023-12-20T09:29:35;99814.47;;;13.21;49.63
14383;BME280;7275;50.328;8.720;2023-12-20T09:32:03;99811.16;;;13.16;49.26
14383;BME280;7275;50.328;8.720;2023-12-20T09:34:32;99824.09;;;13.04;49.18
14383;BME280;7275;50.328;8.720;2023-12-20T09:37:00;99823.28;;;13.02;49.51
14383;BME280;7275;50.328;8.720;2023-12-20T09:39:29;99812.56;;;13.05;49.90
14383;BME280;7275;50.328;8.720;2023-12-20T09:42:02;99814.38;;;13.04;49.46
14383;BME280;7275;50.328;8.720;2023-12-20T09:44:30;99809.97;;;13.03;48.93
14383;BME280;7275;50.328;8.720;2023-12-20T09:47:01;99812.50;;;13.06;49.58
14383;BME280;7275;50.328;8.720;2023-12-20T09:49:30;99809.84;;;13.06;49.34
14383;BME280;7275;50.328;8.720;2023-12-20T09:52:00;99809.31;;;12.98;48.82
14383;BME280;7275;50.328;8.720;2023-12-20T09:54:28;99804.88;;;12.99;49.18
14383;BME280;7275;50.328;8.720;2023-12-20T09:56:57;99809.31;;;12.98;49.05
14383;BME280;7275;50.328;8.720;2023-12-20T09:59:25;99802.50;;;12.93;49.10
14383;BME280;7275;50.328;8.720;2023-12-20T10:01:54;99806.00;;;12.93;48.84
14383;BME280;7275;50.328;8.720;2023-12-20T10:04:24;99803.09;;;12.99;49.25
14383;BME280;7275;50.328;8.720;2023-12-20T10:06:56;99803.06;;;13.19;48.79
14383;BME280;7275;50.328;8.720;2023-12-20T10:09:26;99815.16;;;13.25;47.43
14383;BME280;7275;50.328;8.720;2023-12-20T10:11:55;99790.44;;;13.43;48.24
14383;BME280;7275;50.328;8.720;2023-12-20T10:14:23;99783.22;;;13.63;48.96
14383;BME280;7275;50.328;8.720;2023-12-20T10:16:51;99793.53;;;13.88;47.85
14383;BME280;7275;50.328;8.720;2023-12-20T10:19:19;99782.13;;;14.03;47.40
14383;BME280;7275;50.328;8.720;2023-12-20T10:21:47;99777.28;;;14.11;46.94
14383;BME280;7275;50.328;8.720;2023-12-20T10:24:17;99756.63;;;14.16;46.23
14383;BME280;7275;50.328;8.720;2023-12-20T10:26:46;99744.31;;;14.32;46.95
14383;BME280;7275;50.328;8.720;2023-12-20T10:29:14;99742.75;;;14.78;46.73
14383;BME280;7275;50.328;8.720;2023-12-20T10:31:42;99730.38;;;15.41;46.23
14383;BME280;7275;50.328;8.720;2023-12-20T10:34:11;99727.91;;;16.29;45.91
14383;BME280;7275;50.328;8.720;2023-12-20T10:36:39;99729.00;;;17.11;44.07
14383;BME280;7275;50.328;8.720;2023-12-20T10:39:09;99725.25;;;17.95;42.66
14383;BME280;7275;50.328;8.720;2023-12-20T10:41:40;99711.03;;;18.59;40.93
14383;BME280;7275;50.328;8.720;2023-12-20T10:44:10;99713.09;;;19.29;40.13
14383;BME280;7275;50.328;8.720;2023-12-20T10:46:39;99698.28;;;20.07;38.30
14383;BME280;7275;50.328;8.720;2023-12-20T10:49:08;99703.72;;;20.86;38.16
14383;BME280;7275;50.328;8.720;2023-12-20T10:51:36;99691.50;;;21.48;37.42
14383;BME280;7275;50.328;8.720;2023-12-20T10:54:05;99701.31;;;22.13;34.80
14383;BME280;7275;50.328;8.720;2023-12-20T10:56:33;99703.28;;;22.52;32.89
14383;BME280;7275;50.328;8.720;2023-12-20T10:59:02;99689.44;;;22.36;30.28
14383;BME280;7275;50.328;8.720;2023-12-20T11:01:33;99690.47;;;22.24;31.74
14383;BME280;7275;50.328;8.720;2023-12-20T11:04:05;99686.81;;;22.25;31.79
14383;BME280;7275;50.328;8.720;2023-12-20T11:06:40;99685.53;;;22.50;33.18
14383;BME280;7275;50.328;8.720;2023-12-20T11:09:14;99686.97;;;22.74;32.91
14383;BME280;7275;50.328;8.720;2023-12-20T11:11:56;99680.19;;;23.10;31.46
14383;BME280;7275;50.328;8.720;2023-12-20T11:14:31;99679.03;;;23.33;29.87
14383;BME280;7275;50.328;8.720;2023-12-20T11:17:09;99687.00;;;23.54;30.54
14383;BME280;7275;50.328;8.720;2023-12-20T11:19:38;99673.69;;;23.81;30.46
14383;BME280;7275;50.328;8.720;2023-12-20T11:22:30;99671.16;;;24.18;29.72
14383;BME280;7275;50.328;8.720;2023-12-20T11:25:03;99677.28;;;24.20;28.93
14383;BME280;7275;50.328;8.720;2023-12-20T11:27:31;99664.03;;;23.69;28.59
14383;BME280;7275;50.328;8.720;2023-12-20T11:29:59;99672.56;;;23.25;28.21
14383;BME280;7275;50.328;8.720;2023-12-20T11:32:34;99672.59;;;22.64;29.54
14383;BME280;7275;50.328;8.720;2023-12-20T11:35:17;99691.66;;;22.10;30.51
14383;BME280;7275;50.328;8.720;2023-12-20T11:37:45;99686.19;;;21.58;30.54
14383;BME280;7275;50.328;8.720;2023-12-20T11:40:15;99689.59;;;21.06;31.29
14383;BME280;7275;50.328;8.720;2023-12-20T11:42:44;99675.75;;;20.66;31.73
14383;BME280;7275;50.328;8.720;2023-12-20T11:45:14;99683.31;;;20.50;32.43
14383;BME280;7275;50.328;8.720;2023-12-20T11:47:46;99688.00;;;20.25;32.73
14383;BME280;7275;50.328;8.720;2023-12-20T11:50:17;99681.91;;;19.99;33.51
14383;BME280;7275;50.328;8.720;2023-12-20T11:52:45;99685.06;;;19.69;33.71
14383;BME280;7275;50.328;8.720;2023-12-20T11:55:13;99683.19;;;19.35;33.18
14383;BME280;7275;50.328;8.720;2023-12-20T11:57:41;99671.53;;;19.11;34.24
14383;BME280;7275;50.328;8.720;2023-12-20T12:00:10;99668.06;;;18.98;35.01
14383;BME280;7275;50.328;8.720;2023-12-20T12:02:38;99672.25;;;18.77;34.79
14383;BME280;7275;50.328;8.720;2023-12-20T12:05:07;99668.59;;;18.40;34.80
14383;BME280;7275;50.328;8.720;2023-12-20T12:07:35;99651.53;;;17.91;35.29
14383;BME280;7275;50.328;8.720;2023-12-20T12:10:04;99662.34;;;17.50;36.29
14383;BME280;7275;50.328;8.720;2023-12-20T12:12:31;99653.91;;;17.15;37.10
14383;BME280;7275;50.328;8.720;2023-12-20T12:14:59;99666.06;;;16.93;37.19
14383;BME280;7275;50.328;8.720;2023-12-20T12:17:27;99662.09;;;16.57;38.07
14383;BME280;7275;50.328;8.720;2023-12-20T12:20:02;99655.94;;;16.27;38.41
14383;BME280;7275;50.328;8.720;2023-12-20T12:22:32;99658.31;;;16.04;38.77
14383;BME280;7275;50.328;8.720;2023-12-20T12:25:09;99672.41;;;15.76;39.14
14383;BME280;7275;50.328;8.720;2023-12-20T12:27:40;99676.16;;;15.58;39.39
14383;BME280;7275;50.328;8.720;2023-12-20T12:30:08;99669.53;;;15.34;40.03
14383;BME280;7275;50.328;8.720;2023-12-20T12:32:38;99661.47;;;15.19;40.35
14383;BME280;7275;50.328;8.720;2023-12-20T12:35:07;99640.88;;;15.07;40.78
14383;BME280;7275;50.328;8.720;2023-12-20T12:37:38;99660.44;;;14.91;40.96
14383;BME280;7275;50.328;8.720;2023-12-20T12:40:09;99653.72;;;14.84;41.25
14383;BME280;7275;50.328;8.720;2023-12-20T12:42:39;99666.16;;;14.83;41.69
14383;BME280;7275;50.328;8.720;2023-12-20T12:45:07;99690.41;;;14.79;41.64
14383;BME280;7275;50.328;8.720;2023-12-20T12:47:35;99645.91;;;14.65;41.63
14383;BME280;7275;50.328;8.720;2023-12-20T12:50:03;99653.28;;;14.60;41.84
14383;BME280;7275;50.328;8.720;2023-12-20T12:52:32;99655.25;;;14.57;42.16
14383;BME280;7275;50.328;8.720;2023-12-20T12:55:01;99650.16;;;14.52;42.32
14383;BME280;7275;50.328;8.720;2023-12-20T12:57:30;99655.56;;;14.51;42.63
14383;BME280;7275;50.328;8.720;2023-12-20T12:59:58;99656.00;;;14.43;42.67
14383;BME280;7275;50.328;8.720;2023-12-20T13:02:25;99646.13;;;14.45;42.96
14383;BME280;7275;50.328;8.720;2023-12-20T13:04:53;99644.69;;;14.55;43.24
14383;BME280;7275;50.328;8.720;2023-12-20T13:07:20;99634.31;;;14.82;42.90
14383;BME280;7275;50.328;8.720;2023-12-20T13:09:48;99627.53;;;14.92;42.27
14383;BME280;7275;50.328;8.720;2023-12-20T13:12:17;99602.81;;;14.90;42.46
14383;BME280;7275;50.328;8.720;2023-12-20T13:14:45;99600.00;;;14.93;42.48
14383;BME280;7275;50.328;8.720;2023-12-20T13:17:12;99601.13;;;14.89;42.48